sensor_id;sensor_type;location;lat;lon;timestamp;P1;durP1;ratioP1;P2;durP2;ratioP2
43809;SDS011;29440;48.208;11.162;2023-05-07T00:01:47;10.40;;;4.22;;
43809;SDS011;29440;48.208;11.162;2023-05-07T00:04:13;7.55;;;4.15;;
43809;SDS011;29440;48.208;11.162;2023-05-07T00:06:38;5.88;;;4.25;;
43809;SDS011;29440;48.208;11.162;2023-05-07T00:09:04;5.90;;;4.20;;
43809;SDS011;29440;48.208;11.162;2023-05-07T00:11:30;4.95;;;3.90;;
43809;SDS011;29440;48.208;11.162;2023-05-07T00:13:56;6.63;;;3.63;;
43809;SDS011;29440;48.208;11.162;2023-05-07T00:16:22;6.13;;;4.10;;
43809;SDS011;29440;48.208;11.162;2023-05-07T00:18:47;7.93;;;4.38;;
43809;SDS011;29440;48.208;11.162;2023-05-07T00:21:13;4.68;;;3.90;;
43809;SDS011;29440;48.208;11.162;2023-05-07T00:23:39;7.97;;;4.68;;
43809;SDS011;29440;48.208;11.162;2023-05-07T00:26:04;7.20;;;4.55;;
43809;SDS011;29440;48.208;11.162;2023-05-07T00:28:30;7.00;;;4.28;;
43809;SDS011;29440;48.208;11.162;2023-05-07T00:30:55;5.28;;;4.03;;
43809;SDS011;29440;48.208;11.162;2023-05-07T00:33:21;8.65;;;3.92;;
43809;SDS011;29440;48.208;11.162;2023-05-07T00:35:47;6.55;;;4.00;;
43809;SDS011;29440;48.208;11.162;2023-05-07T00:38:13;4.88;;;4.05;;
43809;SDS011;29440;48.208;11.162;2023-05-07T00:40:39;7.05;;;3.85;;
43809;SDS011;29440;48.208;11.162;2023-05-07T00:43:04;4.97;;;3.58;;
43809;SDS011;29440;48.208;11.162;2023-05-07T00:45:30;6.18;;;3.15;;
43809;SDS011;29440;48.208;11.162;2023-05-07T00:47:57;8.60;;;4.28;;
43809;SDS011;29440;48.208;11.162;2023-05-07T00:50:25;5.18;;;4.03;;
43809;SDS011;29440;48.208;11.162;2023-05-07T00:52:51;6.30;;;4.45;;
43809;SDS011;29440;48.208;11.162;2023-05-07T00:55:17;8.40;;;4.65;;
43809;SDS011;29440;48.208;11.162;2023-05-07T00:57:43;10.77;;;4.38;;
43809;SDS011;29440;48.208;11.162;2023-05-07T01:00:10;6.00;;;4.40;;
43809;SDS011;29440;48.208;11.162;2023-05-07T01:02:37;9.35;;;4.90;;
43809;SDS011;29440;48.208;11.162;2023-05-07T01:05:04;5.28;;;4.35;;
43809;SDS011;29440;48.208;11.162;2023-05-07T01:07:32;8.60;;;5.03;;
43809;SDS011;29440;48.208;11.162;2023-05-07T01:09:59;5.28;;;4.53;;
43809;SDS011;29440;48.208;11.162;2023-05-07T01:12:25;6.47;;;4.30;;
43809;SDS011;29440;48.208;11.162;2023-05-07T01:14:52;10.40;;;4.75;;
43809;SDS011;29440;48.208;11.162;2023-05-07T01:17:18;5.75;;;4.40;;
43809;SDS011;29440;48.208;11.162;2023-05-07T01:19:44;8.57;;;4.20;;
43809;SDS011;29440;48.208;11.162;2023-05-07T01:22:10;5.30;;;4.32;;
43809;SDS011;29440;48.208;11.162;2023-05-07T01:24:36;8.40;;;4.57;;
43809;SDS011;29440;48.208;11.162;2023-05-07T01:27:03;5.32;;;4.43;;
43809;SDS011;29440;48.208;11.162;2023-05-07T01:29:29;7.38;;;5.30;;
43809;SDS011;29440;48.208;11.162;2023-05-07T01:31:56;6.68;;;4.93;;
43809;SDS011;29440;48.208;11.162;2023-05-07T01:34:23;9.70;;;4.65;;
43809;SDS011;29440;48.208;11.162;2023-05-07T01:36:52;6.22;;;4.88;;
43809;SDS011;29440;48.208;11.162;2023-05-07T01:39:20;10.35;;;5.53;;
43809;SDS011;29440;48.208;11.162;2023-05-07T01:41:47;7.00;;;4.78;;
43809;SDS011;29440;48.208;11.162;2023-05-07T01:44:13;10.25;;;5.78;;
43809;SDS011;29440;48.208;11.162;2023-05-07T01:46:40;8.30;;;5.40;;
43809;SDS011;29440;48.208;11.162;2023-05-07T01:49:05;6.72;;;4.90;;
43809;SDS011;29440;48.208;11.162;2023-05-07T01:51:31;9.50;;;5.88;;
43809;SDS011;29440;48.208;11.162;2023-05-07T01:53:57;10.80;;;6.30;;
43809;SDS011;29440;48.208;11.162;2023-05-07T01:56:23;9.52;;;6.43;;
43809;SDS011;29440;48.208;11.162;2023-05-07T01:58:49;11.68;;;7.43;;
43809;SDS011;29440;48.208;11.162;2023-05-07T02:01:16;13.25;;;6.78;;
43809;SDS011;29440;48.208;11.162;2023-05-07T02:03:41;10.10;;;7.53;;
43809;SDS011;29440;48.208;11.162;2023-05-07T02:06:07;23.65;;;6.95;;
43809;SDS011;29440;48.208;11.162;2023-05-07T02:08:32;10.35;;;7.13;;
43809;SDS011;29440;48.208;11.162;2023-05-07T02:10:58;10.02;;;7.03;;
43809;SDS011;29440;48.208;11.162;2023-05-07T02:13:23;7.93;;;5.90;;
43809;SDS011;29440;48.208;11.162;2023-05-07T02:15:49;10.25;;;6.10;;
43809;SDS011;29440;48.208;11.162;2023-05-07T02:18:15;9.18;;;6.65;;
43809;SDS011;29440;48.208;11.162;2023-05-07T02:20:42;8.23;;;5.65;;
43809;SDS011;29440;48.208;11.162;2023-05-07T02:23:08;9.70;;;6.18;;
43809;SDS011;29440;48.208;11.162;2023-05-07T02:25:33;10.13;;;6.55;;
43809;SDS011;29440;48.208;11.162;2023-05-07T02:27:59;7.63;;;5.18;;
43809;SDS011;29440;48.208;11.162;2023-05-07T02:30:25;7.05;;;5.22;;
43809;SDS011;29440;48.208;11.162;2023-05-07T02:32:51;9.07;;;6.10;;
43809;SDS011;29440;48.208;11.162;2023-05-07T02:35:16;7.18;;;5.03;;
43809;SDS011;29440;48.208;11.162;2023-05-07T02:37:42;7.75;;;5.00;;
43809;SDS011;29440;48.208;11.162;2023-05-07T02:40:08;8.40;;;5.47;;
43809;SDS011;29440;48.208;11.162;2023-05-07T02:42:34;8.77;;;5.57;;
43809;SDS011;29440;48.208;11.162;2023-05-07T02:44:59;7.00;;;4.55;;
43809;SDS011;29440;48.208;11.162;2023-05-07T02:47:25;8.93;;;5.90;;
43809;SDS011;29440;48.208;11.162;2023-05-07T02:49:53;8.23;;;6.32;;
43809;SDS011;29440;48.208;11.162;2023-05-07T02:52:19;8.07;;;5.65;;
43809;SDS011;29440;48.208;11.162;2023-05-07T02:54:44;7.90;;;5.70;;
43809;SDS011;29440;48.208;11.162;2023-05-07T02:57:10;6.80;;;5.32;;
43809;SDS011;29440;48.208;11.162;2023-05-07T02:59:35;8.23;;;5.72;;
43809;SDS011;29440;48.208;11.162;2023-05-07T03:02:01;8.82;;;5.60;;
43809;SDS011;29440;48.208;11.162;2023-05-07T03:04:27;7.47;;;5.20;;
43809;SDS011;29440;48.208;11.162;2023-05-07T03:06:52;8.90;;;5.45;;
43809;SDS011;29440;48.208;11.162;2023-05-07T03:09:18;6.65;;;5.13;;
43809;SDS011;29440;48.208;11.162;2023-05-07T03:11:43;7.15;;;5.32;;
43809;SDS011;29440;48.208;11.162;2023-05-07T03:14:09;8.07;;;4.82;;
43809;SDS011;29440;48.208;11.162;2023-05-07T03:16:35;6.43;;;4.88;;
43809;SDS011;29440;48.208;11.162;2023-05-07T03:19:01;7.20;;;5.32;;
43809;SDS011;29440;48.208;11.162;2023-05-07T03:21:26;6.63;;;5.40;;
43809;SDS011;29440;48.208;11.162;2023-05-07T03:23:52;8.02;;;6.00;;
43809;SDS011;29440;48.208;11.162;2023-05-07T03:26:18;9.48;;;6.13;;
43809;SDS011;29440;48.208;11.162;2023-05-07T03:28:43;12.98;;;6.22;;
43809;SDS011;29440;48.208;11.162;2023-05-07T03:31:09;10.25;;;6.95;;
43809;SDS011;29440;48.208;11.162;2023-05-07T03:33:34;12.95;;;7.50;;
43809;SDS011;29440;48.208;11.162;2023-05-07T03:36:00;14.73;;;9.10;;
43809;SDS011;29440;48.208;11.162;2023-05-07T03:38:26;12.07;;;8.15;;
43809;SDS011;29440;48.208;11.162;2023-05-07T03:40:51;14.20;;;7.82;;
43809;SDS011;29440;48.208;11.162;2023-05-07T03:43:17;10.75;;;7.20;;
43809;SDS011;29440;48.208;11.162;2023-05-07T03:45:43;10.35;;;7.13;;
43809;SDS011;29440;48.208;11.162;2023-05-07T03:48:08;9.05;;;6.80;;
43809;SDS011;29440;48.208;11.162;2023-05-07T03:50:33;11.55;;;7.03;;
43809;SDS011;29440;48.208;11.162;2023-05-07T03:52:59;9.95;;;6.53;;
43809;SDS011;29440;48.208;11.162;2023-05-07T03:55:25;9.75;;;6.60;;
43809;SDS011;29440;48.208;11.162;2023-05-07T03:57:50;9.52;;;6.82;;
43809;SDS011;29440;48.208;11.162;2023-05-07T04:00:16;12.10;;;6.45;;
43809;SDS011;29440;48.208;11.162;2023-05-07T04:02:42;8.00;;;6.03;;
43809;SDS011;29440;48.208;11.162;2023-05-07T04:05:07;9.18;;;6.20;;
43809;SDS011;29440;48.208;11.162;2023-05-07T04:07:33;9.55;;;6.38;;
43809;SDS011;29440;48.208;11.162;2023-05-07T04:09:58;7.38;;;5.82;;
43809;SDS011;29440;48.208;11.162;2023-05-07T04:12:24;7.32;;;5.32;;
43809;SDS011;29440;48.208;11.162;2023-05-07T04:14:49;7.43;;;5.47;;
43809;SDS011;29440;48.208;11.162;2023-05-07T04:17:15;10.20;;;6.43;;
43809;SDS011;29440;48.208;11.162;2023-05-07T04:19:40;7.45;;;6.00;;
43809;SDS011;29440;48.208;11.162;2023-05-07T04:22:10;8.50;;;5.97;;
43809;SDS011;29440;48.208;11.162;2023-05-07T04:24:36;8.75;;;6.68;;
43809;SDS011;29440;48.208;11.162;2023-05-07T04:27:01;10.68;;;6.75;;
43809;SDS011;29440;48.208;11.162;2023-05-07T04:29:27;8.50;;;6.35;;
43809;SDS011;29440;48.208;11.162;2023-05-07T04:31:53;11.75;;;7.43;;
43809;SDS011;29440;48.208;11.162;2023-05-07T04:34:20;8.55;;;6.65;;
43809;SDS011;29440;48.208;11.162;2023-05-07T04:36:46;9.50;;;6.25;;
43809;SDS011;29440;48.208;11.162;2023-05-07T04:39:12;9.05;;;6.97;;
43809;SDS011;29440;48.208;11.162;2023-05-07T04:41:38;11.35;;;7.30;;
43809;SDS011;29440;48.208;11.162;2023-05-07T04:44:04;9.85;;;7.82;;
43809;SDS011;29440;48.208;11.162;2023-05-07T04:46:30;14.57;;;7.25;;
43809;SDS011;29440;48.208;11.162;2023-05-07T04:48:55;9.15;;;6.78;;
43809;SDS011;29440;48.208;11.162;2023-05-07T04:51:21;8.57;;;6.28;;
43809;SDS011;29440;48.208;11.162;2023-05-07T04:53:47;14.02;;;8.18;;
43809;SDS011;29440;48.208;11.162;2023-05-07T04:56:12;12.70;;;8.63;;
43809;SDS011;29440;48.208;11.162;2023-05-07T04:58:38;11.82;;;7.57;;
43809;SDS011;29440;48.208;11.162;2023-05-07T05:01:03;12.57;;;7.53;;
43809;SDS011;29440;48.208;11.162;2023-05-07T05:03:30;14.52;;;7.88;;
43809;SDS011;29440;48.208;11.162;2023-05-07T05:05:55;8.77;;;7.05;;
43809;SDS011;29440;48.208;11.162;2023-05-07T05:08:24;10.75;;;7.78;;
43809;SDS011;29440;48.208;11.162;2023-05-07T05:10:49;10.05;;;7.82;;
43809;SDS011;29440;48.208;11.162;2023-05-07T05:13:15;9.00;;;7.55;;
43809;SDS011;29440;48.208;11.162;2023-05-07T05:15:40;9.55;;;7.60;;
43809;SDS011;29440;48.208;11.162;2023-05-07T05:18:06;11.25;;;8.00;;
43809;SDS011;29440;48.208;11.162;2023-05-07T05:20:31;9.45;;;6.85;;
43809;SDS011;29440;48.208;11.162;2023-05-07T05:22:57;11.30;;;8.27;;
43809;SDS011;29440;48.208;11.162;2023-05-07T05:25:23;13.75;;;8.95;;
43809;SDS011;29440;48.208;11.162;2023-05-07T05:27:48;14.05;;;8.45;;
43809;SDS011;29440;48.208;11.162;2023-05-07T05:30:14;11.43;;;8.27;;
43809;SDS011;29440;48.208;11.162;2023-05-07T05:32:39;12.07;;;8.18;;
43809;SDS011;29440;48.208;11.162;2023-05-07T05:35:05;11.88;;;8.48;;
43809;SDS011;29440;48.208;11.162;2023-05-07T05:37:30;13.10;;;9.00;;
43809;SDS011;29440;48.208;11.162;2023-05-07T05:39:56;9.68;;;7.15;;
43809;SDS011;29440;48.208;11.162;2023-05-07T05:42:22;8.25;;;6.60;;
43809;SDS011;29440;48.208;11.162;2023-05-07T05:44:47;7.80;;;6.00;;
43809;SDS011;29440;48.208;11.162;2023-05-07T05:47:13;7.18;;;5.40;;
43809;SDS011;29440;48.208;11.162;2023-05-07T05:49:39;8.55;;;5.60;;
43809;SDS011;29440;48.208;11.162;2023-05-07T05:52:04;7.63;;;5.25;;
43809;SDS011;29440;48.208;11.162;2023-05-07T05:54:30;5.90;;;4.65;;
43809;SDS011;29440;48.208;11.162;2023-05-07T05:56:55;7.70;;;4.45;;
43809;SDS011;29440;48.208;11.162;2023-05-07T05:59:21;7.60;;;4.60;;
43809;SDS011;29440;48.208;11.162;2023-05-07T06:01:47;6.07;;;4.75;;
43809;SDS011;29440;48.208;11.162;2023-05-07T06:04:13;8.15;;;4.63;;
43809;SDS011;29440;48.208;11.162;2023-05-07T06:06:38;5.20;;;4.10;;
43809;SDS011;29440;48.208;11.162;2023-05-07T06:09:04;4.82;;;4.18;;
43809;SDS011;29440;48.208;11.162;2023-05-07T06:11:29;5.57;;;4.35;;
43809;SDS011;29440;48.208;11.162;2023-05-07T06:13:56;5.78;;;3.55;;
43809;SDS011;29440;48.208;11.162;2023-05-07T06:16:22;3.33;;;3.03;;
43809;SDS011;29440;48.208;11.162;2023-05-07T06:18:47;2.97;;;2.33;;
43809;SDS011;29440;48.208;11.162;2023-05-07T06:21:13;5.57;;;3.42;;
43809;SDS011;29440;48.208;11.162;2023-05-07T06:23:39;4.22;;;2.90;;
43809;SDS011;29440;48.208;11.162;2023-05-07T06:26:06;3.13;;;2.58;;
43809;SDS011;29440;48.208;11.162;2023-05-07T06:28:31;3.55;;;2.75;;
43809;SDS011;29440;48.208;11.162;2023-05-07T06:33:39;3.95;;;3.10;;
43809;SDS011;29440;48.208;11.162;2023-05-07T06:36:05;4.70;;;3.08;;
43809;SDS011;29440;48.208;11.162;2023-05-07T06:38:31;4.30;;;3.45;;
43809;SDS011;29440;48.208;11.162;2023-05-07T06:40:56;3.45;;;2.70;;
43809;SDS011;29440;48.208;11.162;2023-05-07T06:43:22;3.65;;;3.10;;
43809;SDS011;29440;48.208;11.162;2023-05-07T06:45:48;4.88;;;2.90;;
43809;SDS011;29440;48.208;11.162;2023-05-07T06:48:13;3.50;;;2.95;;
43809;SDS011;29440;48.208;11.162;2023-05-07T06:50:39;3.00;;;2.63;;
43809;SDS011;29440;48.208;11.162;2023-05-07T06:53:04;4.32;;;3.03;;
43809;SDS011;29440;48.208;11.162;2023-05-07T06:55:30;3.20;;;2.10;;
43809;SDS011;29440;48.208;11.162;2023-05-07T06:57:55;3.35;;;2.80;;
43809;SDS011;29440;48.208;11.162;2023-05-07T07:00:23;3.72;;;2.80;;
43809;SDS011;29440;48.208;11.162;2023-05-07T07:02:48;2.80;;;2.53;;
43809;SDS011;29440;48.208;11.162;2023-05-07T07:05:14;3.88;;;2.60;;
43809;SDS011;29440;48.208;11.162;2023-05-07T07:07:39;4.38;;;2.88;;
43809;SDS011;29440;48.208;11.162;2023-05-07T07:10:05;3.10;;;2.80;;
43809;SDS011;29440;48.208;11.162;2023-05-07T07:12:31;3.60;;;2.45;;
43809;SDS011;29440;48.208;11.162;2023-05-07T07:14:56;4.57;;;2.58;;
43809;SDS011;29440;48.208;11.162;2023-05-07T07:17:22;3.38;;;2.88;;
43809;SDS011;29440;48.208;11.162;2023-05-07T07:19:47;4.95;;;3.28;;
43809;SDS011;29440;48.208;11.162;2023-05-07T07:22:13;2.67;;;2.25;;
43809;SDS011;29440;48.208;11.162;2023-05-07T07:24:39;3.53;;;2.55;;
43809;SDS011;29440;48.208;11.162;2023-05-07T07:27:04;4.60;;;1.90;;
43809;SDS011;29440;48.208;11.162;2023-05-07T07:29:30;3.10;;;1.92;;
43809;SDS011;29440;48.208;11.162;2023-05-07T07:31:56;3.65;;;2.00;;
43809;SDS011;29440;48.208;11.162;2023-05-07T07:34:21;4.95;;;2.30;;
43809;SDS011;29440;48.208;11.162;2023-05-07T07:36:47;3.40;;;2.00;;
43809;SDS011;29440;48.208;11.162;2023-05-07T07:39:12;3.55;;;1.90;;
43809;SDS011;29440;48.208;11.162;2023-05-07T07:41:38;3.90;;;1.90;;
43809;SDS011;29440;48.208;11.162;2023-05-07T07:44:04;2.70;;;1.92;;
43809;SDS011;29440;48.208;11.162;2023-05-07T07:46:32;2.70;;;1.90;;
43809;SDS011;29440;48.208;11.162;2023-05-07T07:48:58;3.40;;;2.38;;
43809;SDS011;29440;48.208;11.162;2023-05-07T07:51:24;2.60;;;1.80;;
43809;SDS011;29440;48.208;11.162;2023-05-07T07:53:51;3.90;;;2.30;;
43809;SDS011;29440;48.208;11.162;2023-05-07T07:56:17;3.78;;;2.00;;
43809;SDS011;29440;48.208;11.162;2023-05-07T07:58:42;3.50;;;2.25;;
43809;SDS011;29440;48.208;11.162;2023-05-07T08:01:08;3.85;;;2.40;;
43809;SDS011;29440;48.208;11.162;2023-05-07T08:03:33;4.55;;;2.20;;
43809;SDS011;29440;48.208;11.162;2023-05-07T08:05:59;3.28;;;2.90;;
43809;SDS011;29440;48.208;11.162;2023-05-07T08:08:24;4.80;;;2.53;;
43809;SDS011;29440;48.208;11.162;2023-05-07T08:10:50;5.35;;;2.78;;
43809;SDS011;29440;48.208;11.162;2023-05-07T08:13:17;4.97;;;3.63;;
43809;SDS011;29440;48.208;11.162;2023-05-07T08:15:42;5.20;;;3.95;;
43809;SDS011;29440;48.208;11.162;2023-05-07T08:18:08;7.00;;;4.30;;
43809;SDS011;29440;48.208;11.162;2023-05-07T08:20:34;5.18;;;4.30;;
43809;SDS011;29440;48.208;11.162;2023-05-07T08:23:04;6.78;;;4.57;;
43809;SDS011;29440;48.208;11.162;2023-05-07T08:25:32;6.35;;;4.95;;
43809;SDS011;29440;48.208;11.162;2023-05-07T08:27:58;6.18;;;5.05;;
43809;SDS011;29440;48.208;11.162;2023-05-07T08:30:23;5.47;;;4.82;;
43809;SDS011;29440;48.208;11.162;2023-05-07T08:32:49;7.35;;;4.38;;
43809;SDS011;29440;48.208;11.162;2023-05-07T08:35:14;6.00;;;4.60;;
43809;SDS011;29440;48.208;11.162;2023-05-07T08:37:40;7.57;;;4.50;;
43809;SDS011;29440;48.208;11.162;2023-05-07T08:40:06;10.80;;;4.90;;
43809;SDS011;29440;48.208;11.162;2023-05-07T08:42:34;6.68;;;4.43;;
43809;SDS011;29440;48.208;11.162;2023-05-07T08:45:01;7.47;;;4.43;;
43809;SDS011;29440;48.208;11.162;2023-05-07T08:47:32;7.97;;;4.68;;
43809;SDS011;29440;48.208;11.162;2023-05-07T08:50:09;9.60;;;4.78;;
43809;SDS011;29440;48.208;11.162;2023-05-07T08:52:35;7.22;;;5.00;;
43809;SDS011;29440;48.208;11.162;2023-05-07T08:55:02;7.40;;;4.22;;
43809;SDS011;29440;48.208;11.162;2023-05-07T08:57:28;5.20;;;3.35;;
43809;SDS011;29440;48.208;11.162;2023-05-07T08:59:53;4.38;;;3.58;;
43809;SDS011;29440;48.208;11.162;2023-05-07T09:02:19;4.32;;;3.38;;
43809;SDS011;29440;48.208;11.162;2023-05-07T09:04:45;4.00;;;2.92;;
43809;SDS011;29440;48.208;11.162;2023-05-07T09:07:10;4.20;;;2.95;;
43809;SDS011;29440;48.208;11.162;2023-05-07T09:09:36;4.75;;;3.13;;
43809;SDS011;29440;48.208;11.162;2023-05-07T09:12:02;5.68;;;3.80;;
43809;SDS011;29440;48.208;11.162;2023-05-07T09:14:28;4.65;;;3.33;;
43809;SDS011;29440;48.208;11.162;2023-05-07T09:16:55;5.75;;;2.58;;
43809;SDS011;29440;48.208;11.162;2023-05-07T09:19:25;4.70;;;2.58;;
43809;SDS011;29440;48.208;11.162;2023-05-07T09:21:58;2.67;;;1.92;;
43809;SDS011;29440;48.208;11.162;2023-05-07T09:24:27;3.47;;;2.08;;
43809;SDS011;29440;48.208;11.162;2023-05-07T09:27:00;3.50;;;2.70;;
43809;SDS011;29440;48.208;11.162;2023-05-07T09:29:28;3.67;;;3.08;;
43809;SDS011;29440;48.208;11.162;2023-05-07T09:31:55;4.97;;;2.90;;
43809;SDS011;29440;48.208;11.162;2023-05-07T09:34:21;5.20;;;2.47;;
43809;SDS011;29440;48.208;11.162;2023-05-07T09:36:47;3.95;;;2.30;;
43809;SDS011;29440;48.208;11.162;2023-05-07T09:39:12;3.65;;;2.47;;
43809;SDS011;29440;48.208;11.162;2023-05-07T09:41:45;3.85;;;2.67;;
43809;SDS011;29440;48.208;11.162;2023-05-07T09:44:12;3.63;;;3.10;;
43809;SDS011;29440;48.208;11.162;2023-05-07T09:46:39;3.38;;;2.67;;
43809;SDS011;29440;48.208;11.162;2023-05-07T09:49:07;4.63;;;2.67;;
43809;SDS011;29440;48.208;11.162;2023-05-07T09:51:45;2.92;;;2.20;;
43809;SDS011;29440;48.208;11.162;2023-05-07T09:54:14;4.80;;;2.72;;
43809;SDS011;29440;48.208;11.162;2023-05-07T09:56:40;3.95;;;2.35;;
43809;SDS011;29440;48.208;11.162;2023-05-07T09:59:07;5.70;;;2.50;;
43809;SDS011;29440;48.208;11.162;2023-05-07T10:01:35;4.22;;;2.83;;
43809;SDS011;29440;48.208;11.162;2023-05-07T10:04:02;4.22;;;2.08;;
43809;SDS011;29440;48.208;11.162;2023-05-07T10:06:29;3.30;;;2.60;;
43809;SDS011;29440;48.208;11.162;2023-05-07T10:08:55;3.92;;;2.75;;
43809;SDS011;29440;48.208;11.162;2023-05-07T10:11:21;4.20;;;1.88;;
43809;SDS011;29440;48.208;11.162;2023-05-07T10:13:47;4.88;;;1.70;;
43809;SDS011;29440;48.208;11.162;2023-05-07T10:16:13;3.10;;;2.15;;
43809;SDS011;29440;48.208;11.162;2023-05-07T10:18:40;2.58;;;2.05;;
43809;SDS011;29440;48.208;11.162;2023-05-07T10:21:19;4.68;;;2.20;;
43809;SDS011;29440;48.208;11.162;2023-05-07T10:23:47;5.05;;;1.92;;
43809;SDS011;29440;48.208;11.162;2023-05-07T10:26:15;3.25;;;2.00;;
43809;SDS011;29440;48.208;11.162;2023-05-07T10:28:44;3.40;;;2.38;;
43809;SDS011;29440;48.208;11.162;2023-05-07T10:34:18;3.58;;;2.33;;
43809;SDS011;29440;48.208;11.162;2023-05-07T10:36:48;8.40;;;3.15;;
43809;SDS011;29440;48.208;11.162;2023-05-07T10:39:14;4.68;;;2.38;;
43809;SDS011;29440;48.208;11.162;2023-05-07T10:41:40;3.60;;;2.15;;
43809;SDS011;29440;48.208;11.162;2023-05-07T10:44:05;2.30;;;2.05;;
43809;SDS011;29440;48.208;11.162;2023-05-07T10:46:31;5.03;;;2.70;;
43809;SDS011;29440;48.208;11.162;2023-05-07T10:51:25;2.72;;;1.73;;
43809;SDS011;29440;48.208;11.162;2023-05-07T10:56:42;4.75;;;1.80;;
43809;SDS011;29440;48.208;11.162;2023-05-07T11:01:50;5.05;;;2.67;;
43809;SDS011;29440;48.208;11.162;2023-05-07T11:04:19;3.88;;;2.65;;
43809;SDS011;29440;48.208;11.162;2023-05-07T11:15:01;3.63;;;1.67;;
43809;SDS011;29440;48.208;11.162;2023-05-07T11:17:31;2.67;;;1.67;;
43809;SDS011;29440;48.208;11.162;2023-05-07T11:19:59;1.63;;;1.40;;
43809;SDS011;29440;48.208;11.162;2023-05-07T11:25:02;3.58;;;1.70;;
43809;SDS011;29440;48.208;11.162;2023-05-07T11:27:28;2.20;;;1.75;;
43809;SDS011;29440;48.208;11.162;2023-05-07T11:29:54;3.47;;;1.40;;
43809;SDS011;29440;48.208;11.162;2023-05-07T11:32:24;2.50;;;1.60;;
43809;SDS011;29440;48.208;11.162;2023-05-07T11:34:51;2.22;;;1.48;;
43809;SDS011;29440;48.208;11.162;2023-05-07T11:37:18;2.22;;;1.38;;
43809;SDS011;29440;48.208;11.162;2023-05-07T11:39:44;2.60;;;1.33;;
43809;SDS011;29440;48.208;11.162;2023-05-07T11:42:28;2.85;;;1.75;;
43809;SDS011;29440;48.208;11.162;2023-05-07T11:44:55;2.65;;;1.58;;
43809;SDS011;29440;48.208;11.162;2023-05-07T11:47:21;1.88;;;1.10;;
43809;SDS011;29440;48.208;11.162;2023-05-07T11:49:50;2.25;;;1.23;;
43809;SDS011;29440;48.208;11.162;2023-05-07T11:52:17;3.38;;;1.60;;
43809;SDS011;29440;48.208;11.162;2023-05-07T11:57:16;2.10;;;1.30;;
43809;SDS011;29440;48.208;11.162;2023-05-07T11:59:41;3.50;;;1.20;;
43809;SDS011;29440;48.208;11.162;2023-05-07T12:02:09;2.13;;;1.05;;
43809;SDS011;29440;48.208;11.162;2023-05-07T12:04:35;2.03;;;1.00;;
43809;SDS011;29440;48.208;11.162;2023-05-07T12:07:00;2.67;;;1.02;;
43809;SDS011;29440;48.208;11.162;2023-05-07T12:09:26;2.95;;;1.30;;
43809;SDS011;29440;48.208;11.162;2023-05-07T12:11:52;8.65;;;1.38;;
43809;SDS011;29440;48.208;11.162;2023-05-07T12:14:18;3.00;;;0.98;;
43809;SDS011;29440;48.208;11.162;2023-05-07T12:16:44;5.80;;;1.15;;
43809;SDS011;29440;48.208;11.162;2023-05-07T12:19:10;1.90;;;1.10;;
43809;SDS011;29440;48.208;11.162;2023-05-07T12:21:39;1.98;;;0.98;;
43809;SDS011;29440;48.208;11.162;2023-05-07T12:24:05;3.10;;;1.20;;
43809;SDS011;29440;48.208;11.162;2023-05-07T12:26:33;1.65;;;0.73;;
43809;SDS011;29440;48.208;11.162;2023-05-07T12:29:06;1.70;;;0.93;;
43809;SDS011;29440;48.208;11.162;2023-05-07T12:31:31;2.90;;;0.82;;
43809;SDS011;29440;48.208;11.162;2023-05-07T12:33:57;1.77;;;0.90;;
43809;SDS011;29440;48.208;11.162;2023-05-07T12:36:22;1.95;;;0.80;;
43809;SDS011;29440;48.208;11.162;2023-05-07T12:38:51;1.83;;;0.77;;
43809;SDS011;29440;48.208;11.162;2023-05-07T12:41:19;2.80;;;0.90;;
43809;SDS011;29440;48.208;11.162;2023-05-07T12:43:50;2.47;;;1.00;;
43809;SDS011;29440;48.208;11.162;2023-05-07T12:46:22;2.47;;;1.10;;
43809;SDS011;29440;48.208;11.162;2023-05-07T12:48:48;2.58;;;1.02;;
43809;SDS011;29440;48.208;11.162;2023-05-07T12:51:14;2.47;;;0.93;;
43809;SDS011;29440;48.208;11.162;2023-05-07T12:53:40;2.55;;;0.95;;
43809;SDS011;29440;48.208;11.162;2023-05-07T12:56:07;2.15;;;0.90;;
43809;SDS011;29440;48.208;11.162;2023-05-07T12:58:34;2.50;;;0.90;;
43809;SDS011;29440;48.208;11.162;2023-05-07T13:01:01;2.17;;;0.90;;
43809;SDS011;29440;48.208;11.162;2023-05-07T13:03:32;1.40;;;0.80;;
43809;SDS011;29440;48.208;11.162;2023-05-07T13:06:01;3.97;;;1.23;;
43809;SDS011;29440;48.208;11.162;2023-05-07T13:08:35;1.98;;;1.08;;
43809;SDS011;29440;48.208;11.162;2023-05-07T13:11:02;2.88;;;1.17;;
43809;SDS011;29440;48.208;11.162;2023-05-07T13:13:32;2.92;;;1.20;;
43809;SDS011;29440;48.208;11.162;2023-05-07T13:16:00;4.32;;;1.00;;
43809;SDS011;29440;48.208;11.162;2023-05-07T13:18:27;3.95;;;1.00;;
43809;SDS011;29440;48.208;11.162;2023-05-07T13:20:54;4.30;;;1.10;;
43809;SDS011;29440;48.208;11.162;2023-05-07T13:23:19;1.23;;;0.90;;
43809;SDS011;29440;48.208;11.162;2023-05-07T13:25:45;1.58;;;0.90;;
43809;SDS011;29440;48.208;11.162;2023-05-07T13:28:10;1.45;;;0.95;;
43809;SDS011;29440;48.208;11.162;2023-05-07T13:33:21;2.47;;;0.98;;
43809;SDS011;29440;48.208;11.162;2023-05-07T13:35:47;5.22;;;1.10;;
43809;SDS011;29440;48.208;11.162;2023-05-07T13:38:12;1.95;;;1.00;;
43809;SDS011;29440;48.208;11.162;2023-05-07T13:40:38;2.05;;;1.30;;
43809;SDS011;29440;48.208;11.162;2023-05-07T13:43:05;3.97;;;1.00;;
43809;SDS011;29440;48.208;11.162;2023-05-07T13:45:31;2.15;;;0.93;;
43809;SDS011;29440;48.208;11.162;2023-05-07T13:47:56;2.20;;;1.30;;
43809;SDS011;29440;48.208;11.162;2023-05-07T13:50:22;1.55;;;1.00;;
43809;SDS011;29440;48.208;11.162;2023-05-07T13:52:48;2.53;;;0.90;;
43809;SDS011;29440;48.208;11.162;2023-05-07T13:55:20;9.02;;;1.50;;
43809;SDS011;29440;48.208;11.162;2023-05-07T13:57:47;3.67;;;1.15;;
43809;SDS011;29440;48.208;11.162;2023-05-07T14:00:13;3.08;;;1.15;;
43809;SDS011;29440;48.208;11.162;2023-05-07T14:02:39;1.60;;;0.90;;
43809;SDS011;29440;48.208;11.162;2023-05-07T14:05:05;3.13;;;0.98;;
43809;SDS011;29440;48.208;11.162;2023-05-07T14:07:31;1.55;;;1.05;;
43809;SDS011;29440;48.208;11.162;2023-05-07T14:09:57;2.15;;;1.20;;
43809;SDS011;29440;48.208;11.162;2023-05-07T14:12:23;3.38;;;1.00;;
43809;SDS011;29440;48.208;11.162;2023-05-07T14:14:48;2.88;;;1.23;;
43809;SDS011;29440;48.208;11.162;2023-05-07T14:17:15;3.85;;;1.45;;
43809;SDS011;29440;48.208;11.162;2023-05-07T14:19:41;3.17;;;1.40;;
43809;SDS011;29440;48.208;11.162;2023-05-07T14:22:07;3.90;;;1.42;;
43809;SDS011;29440;48.208;11.162;2023-05-07T14:24:33;3.15;;;1.65;;
43809;SDS011;29440;48.208;11.162;2023-05-07T14:26:59;2.40;;;1.70;;
43809;SDS011;29440;48.208;11.162;2023-05-07T14:29:25;5.03;;;1.92;;
43809;SDS011;29440;48.208;11.162;2023-05-07T14:31:50;2.95;;;1.48;;
43809;SDS011;29440;48.208;11.162;2023-05-07T14:34:16;5.53;;;2.15;;
43809;SDS011;29440;48.208;11.162;2023-05-07T14:36:41;3.70;;;1.83;;
43809;SDS011;29440;48.208;11.162;2023-05-07T14:39:08;3.58;;;1.80;;
43809;SDS011;29440;48.208;11.162;2023-05-07T14:41:34;3.42;;;1.73;;
43809;SDS011;29440;48.208;11.162;2023-05-07T14:44:00;2.17;;;1.60;;
43809;SDS011;29440;48.208;11.162;2023-05-07T14:46:26;2.85;;;1.52;;
43809;SDS011;29440;48.208;11.162;2023-05-07T14:48:52;2.53;;;1.80;;
43809;SDS011;29440;48.208;11.162;2023-05-07T14:51:17;3.30;;;1.95;;
43809;SDS011;29440;48.208;11.162;2023-05-07T14:53:44;2.83;;;1.60;;
43809;SDS011;29440;48.208;11.162;2023-05-07T14:56:09;2.33;;;1.70;;
43809;SDS011;29440;48.208;11.162;2023-05-07T14:58:35;3.10;;;1.40;;